Terminal Aerodrome Forecast
Issued by NWS

Home | Current Version | Previous Version | Text Only | Print | Product List | Glossary On
Versions: 1 2 3 4 5 6 7 8 9 10 11 12 13 14 15 16 17 18 19
000
FTUS42 KMHX 232336
TAFOAJ
TAF
KOAJ 232336Z 2400/2424 21009KT 6SM -SHRA SCT007 OVC025
      TEMPO 2400/2402 5SM -SHRA OVC007
     FM240200 21009KT 2SM SHRA SCT008 OVC015
     FM240600 22007KT P6SM VCSH OVC008
     FM241400 20005KT P6SM OVC020
     FM241800 18007KT 6SM -SHRA OVC030
      AMD LTD TO CLD VIS AND WIND=

USA.gov is the U.S. government's official web portal to all federal, state and local government web resources and services.